Redwood Falls Municipal Airport Redwood Falls US
ICAO: KRWF
IATA: RWF
Category: Medium
Scheduled Services: No

Elevation: 1024 ft
TransAlt. 18000 ft.

Airport Communications:
ASOS:126.575
MINNEAPOLIS CNTR:127.1
PRINCETON RDO:122.4
CTAF/UNICOM:123

KRWF Zoom In..

If you have problems with the map follow the link
https://www.worldairports.se/pages/airport.php?
ICAO=KRWF

Runways:

(A) RW 05 length 2081 ft width 200 ft
---- / hdg 50

(B) RW 12 length 4001 ft width 100 ft
---- / hdg 124

(C) RW 23 length 2081 ft width 200 ft
---- / hdg 230

(D) RW 30 length 4001 ft width 100 ft
---- / hdg 304

Location; KRWF
Day. 26 / Time. 22.53 Zulu
* Altimeter: 29.88
* Temperature: -03° c. -26.6°f.
* Wind from: 140° Speed 03 kn.
Dewpoint: -04° c.
Visibility: 4 Statute Miles.
Clouds: Broken 400 ft.
Clouds: Broken 700 ft.
Clouds: Overcast 3600 ft.
Conditions: Mist.

KRWF 262253Z AUTO 14003KT 4SM BR BKN004 BKN007 OVC036 M03/M04 A2988 RMK AO2 SLP134 T10281039


Wind From 140°
Speed 03 kn.

 
 
jpsmedia worldairports.se 2020   terms of use